sensor_id;sensor_type;location;lat;lon;timestamp;P1;durP1;ratioP1;P2;durP2;ratioP2
40601;SDS011;26310;50.278;19.032;2022-08-21T00:03:11;24.52;;;17.00;;
40601;SDS011;26310;50.278;19.032;2022-08-21T00:08:14;26.33;;;16.85;;
40601;SDS011;26310;50.278;19.032;2022-08-21T00:13:18;24.13;;;15.73;;
40601;SDS011;26310;50.278;19.032;2022-08-21T00:18:21;29.38;;;17.73;;
40601;SDS011;26310;50.278;19.032;2022-08-21T00:23:24;25.35;;;17.08;;
40601;SDS011;26310;50.278;19.032;2022-08-21T00:28:27;29.83;;;18.88;;
40601;SDS011;26310;50.278;19.032;2022-08-21T00:33:30;28.20;;;17.55;;
40601;SDS011;26310;50.278;19.032;2022-08-21T00:38:33;30.52;;;17.83;;
40601;SDS011;26310;50.278;19.032;2022-08-21T00:43:36;31.13;;;18.48;;
40601;SDS011;26310;50.278;19.032;2022-08-21T00:48:40;27.48;;;17.23;;
40601;SDS011;26310;50.278;19.032;2022-08-21T00:53:43;31.95;;;18.33;;
40601;SDS011;26310;50.278;19.032;2022-08-21T00:58:54;31.05;;;18.10;;
40601;SDS011;26310;50.278;19.032;2022-08-21T01:03:58;29.75;;;19.35;;
40601;SDS011;26310;50.278;19.032;2022-08-21T01:09:00;29.20;;;19.67;;
40601;SDS011;26310;50.278;19.032;2022-08-21T01:14:03;33.97;;;18.25;;
40601;SDS011;26310;50.278;19.032;2022-08-21T01:19:07;24.90;;;15.35;;
40601;SDS011;26310;50.278;19.032;2022-08-21T01:24:12;23.13;;;16.25;;
40601;SDS011;26310;50.278;19.032;2022-08-21T01:34:22;23.35;;;15.20;;
40601;SDS011;26310;50.278;19.032;2022-08-21T01:39:25;23.80;;;14.88;;
40601;SDS011;26310;50.278;19.032;2022-08-21T01:44:28;23.27;;;14.88;;
40601;SDS011;26310;50.278;19.032;2022-08-21T01:49:30;20.23;;;12.95;;
40601;SDS011;26310;50.278;19.032;2022-08-21T01:54:33;21.73;;;13.00;;
40601;SDS011;26310;50.278;19.032;2022-08-21T01:59:36;22.02;;;13.95;;
40601;SDS011;26310;50.278;19.032;2022-08-21T02:04:39;18.48;;;13.32;;
40601;SDS011;26310;50.278;19.032;2022-08-21T02:09:45;21.90;;;12.80;;
40601;SDS011;26310;50.278;19.032;2022-08-21T02:14:48;23.15;;;13.43;;
40601;SDS011;26310;50.278;19.032;2022-08-21T02:19:50;23.33;;;13.75;;
40601;SDS011;26310;50.278;19.032;2022-08-21T02:24:53;19.55;;;13.07;;
40601;SDS011;26310;50.278;19.032;2022-08-21T02:29:56;21.85;;;12.43;;
40601;SDS011;26310;50.278;19.032;2022-08-21T02:34:59;20.20;;;12.02;;
40601;SDS011;26310;50.278;19.032;2022-08-21T02:40:02;17.40;;;11.68;;
40601;SDS011;26310;50.278;19.032;2022-08-21T02:45:06;19.77;;;11.80;;
40601;SDS011;26310;50.278;19.032;2022-08-21T02:50:09;19.67;;;11.98;;
40601;SDS011;26310;50.278;19.032;2022-08-21T02:55:12;19.48;;;11.02;;
40601;SDS011;26310;50.278;19.032;2022-08-21T03:00:15;20.52;;;11.95;;
40601;SDS011;26310;50.278;19.032;2022-08-21T03:05:19;19.30;;;11.45;;
40601;SDS011;26310;50.278;19.032;2022-08-21T03:10:22;17.10;;;11.95;;
40601;SDS011;26310;50.278;19.032;2022-08-21T03:15:25;18.67;;;12.52;;
40601;SDS011;26310;50.278;19.032;2022-08-21T03:20:27;19.95;;;12.77;;
40601;SDS011;26310;50.278;19.032;2022-08-21T03:25:31;18.60;;;12.65;;
40601;SDS011;26310;50.278;19.032;2022-08-21T03:30:42;18.42;;;11.93;;
40601;SDS011;26310;50.278;19.032;2022-08-21T03:35:47;23.13;;;12.10;;
40601;SDS011;26310;50.278;19.032;2022-08-21T03:40:53;22.80;;;12.25;;
40601;SDS011;26310;50.278;19.032;2022-08-21T03:45:56;23.23;;;12.88;;
40601;SDS011;26310;50.278;19.032;2022-08-21T03:50:58;18.98;;;12.95;;
40601;SDS011;26310;50.278;19.032;2022-08-21T03:56:01;21.23;;;13.32;;
40601;SDS011;26310;50.278;19.032;2022-08-21T04:01:05;20.35;;;13.30;;
40601;SDS011;26310;50.278;19.032;2022-08-21T04:06:08;22.65;;;13.20;;
40601;SDS011;26310;50.278;19.032;2022-08-21T04:11:11;20.75;;;12.93;;
40601;SDS011;26310;50.278;19.032;2022-08-21T04:16:14;17.70;;;12.38;;
40601;SDS011;26310;50.278;19.032;2022-08-21T04:21:17;22.35;;;12.40;;
40601;SDS011;26310;50.278;19.032;2022-08-21T04:26:24;20.52;;;13.30;;
40601;SDS011;26310;50.278;19.032;2022-08-21T04:31:27;22.23;;;13.85;;
40601;SDS011;26310;50.278;19.032;2022-08-21T04:36:31;21.98;;;14.02;;
40601;SDS011;26310;50.278;19.032;2022-08-21T04:41:35;24.90;;;14.18;;
40601;SDS011;26310;50.278;19.032;2022-08-21T04:46:38;21.17;;;13.90;;
40601;SDS011;26310;50.278;19.032;2022-08-21T04:51:40;20.65;;;13.23;;
40601;SDS011;26310;50.278;19.032;2022-08-21T04:56:51;23.35;;;14.95;;
40601;SDS011;26310;50.278;19.032;2022-08-21T05:02:05;24.23;;;14.30;;
40601;SDS011;26310;50.278;19.032;2022-08-21T05:07:10;25.20;;;15.65;;
40601;SDS011;26310;50.278;19.032;2022-08-21T05:12:37;28.33;;;15.57;;
40601;SDS011;26310;50.278;19.032;2022-08-21T05:17:43;25.23;;;15.10;;
40601;SDS011;26310;50.278;19.032;2022-08-21T05:23:06;28.92;;;16.45;;
40601;SDS011;26310;50.278;19.032;2022-08-21T05:28:09;27.55;;;16.60;;
40601;SDS011;26310;50.278;19.032;2022-08-21T05:33:13;25.20;;;14.77;;
40601;SDS011;26310;50.278;19.032;2022-08-21T05:38:16;32.13;;;16.75;;
40601;SDS011;26310;50.278;19.032;2022-08-21T05:43:19;23.25;;;15.00;;
40601;SDS011;26310;50.278;19.032;2022-08-21T05:48:23;24.38;;;15.45;;
40601;SDS011;26310;50.278;19.032;2022-08-21T05:53:27;28.25;;;16.80;;
40601;SDS011;26310;50.278;19.032;2022-08-21T05:58:30;26.60;;;16.17;;
40601;SDS011;26310;50.278;19.032;2022-08-21T06:03:35;31.58;;;18.17;;
40601;SDS011;26310;50.278;19.032;2022-08-21T06:08:39;28.92;;;18.08;;
40601;SDS011;26310;50.278;19.032;2022-08-21T06:13:42;30.05;;;17.40;;
40601;SDS011;26310;50.278;19.032;2022-08-21T06:18:45;28.15;;;18.02;;
40601;SDS011;26310;50.278;19.032;2022-08-21T06:23:48;33.97;;;18.38;;
40601;SDS011;26310;50.278;19.032;2022-08-21T06:28:50;36.08;;;20.50;;
40601;SDS011;26310;50.278;19.032;2022-08-21T06:33:53;38.03;;;19.23;;
40601;SDS011;26310;50.278;19.032;2022-08-21T06:38:56;33.85;;;19.52;;
40601;SDS011;26310;50.278;19.032;2022-08-21T06:44:00;36.05;;;19.00;;
40601;SDS011;26310;50.278;19.032;2022-08-21T06:49:03;48.63;;;26.52;;
40601;SDS011;26310;50.278;19.032;2022-08-21T06:54:08;16.42;;;12.23;;
40601;SDS011;26310;50.278;19.032;2022-08-21T06:59:12;26.48;;;19.02;;
40601;SDS011;26310;50.278;19.032;2022-08-21T07:04:15;30.73;;;20.25;;
40601;SDS011;26310;50.278;19.032;2022-08-21T07:09:18;9.25;;;5.78;;
40601;SDS011;26310;50.278;19.032;2022-08-21T07:14:25;5.60;;;3.60;;
40601;SDS011;26310;50.278;19.032;2022-08-21T07:19:28;2.67;;;1.90;;
40601;SDS011;26310;50.278;19.032;2022-08-21T07:24:30;3.30;;;2.08;;
40601;SDS011;26310;50.278;19.032;2022-08-21T07:29:33;2.63;;;1.20;;
40601;SDS011;26310;50.278;19.032;2022-08-21T07:34:36;1.65;;;1.10;;
40601;SDS011;26310;50.278;19.032;2022-08-21T07:39:40;1.20;;;0.93;;
40601;SDS011;26310;50.278;19.032;2022-08-21T07:44:43;1.25;;;0.80;;
40601;SDS011;26310;50.278;19.032;2022-08-21T07:49:46;1.50;;;0.85;;
40601;SDS011;26310;50.278;19.032;2022-08-21T07:54:48;1.90;;;0.85;;
40601;SDS011;26310;50.278;19.032;2022-08-21T07:59:54;1.45;;;0.90;;
40601;SDS011;26310;50.278;19.032;2022-08-21T08:05:00;1.23;;;0.80;;
40601;SDS011;26310;50.278;19.032;2022-08-21T08:10:07;1.25;;;0.77;;
40601;SDS011;26310;50.278;19.032;2022-08-21T08:15:12;2.45;;;0.80;;
40601;SDS011;26310;50.278;19.032;2022-08-21T08:20:17;1.88;;;0.93;;
40601;SDS011;26310;50.278;19.032;2022-08-21T08:25:22;0.90;;;0.70;;
40601;SDS011;26310;50.278;19.032;2022-08-21T08:30:25;1.33;;;0.80;;
40601;SDS011;26310;50.278;19.032;2022-08-21T08:35:33;0.88;;;0.70;;
40601;SDS011;26310;50.278;19.032;2022-08-21T08:46:15;1.55;;;1.00;;
40601;SDS011;26310;50.278;19.032;2022-08-21T08:52:05;1.90;;;1.05;;
40601;SDS011;26310;50.278;19.032;2022-08-21T08:56:53;1.50;;;1.20;;
40601;SDS011;26310;50.278;19.032;2022-08-21T09:01:57;2.30;;;1.20;;
40601;SDS011;26310;50.278;19.032;2022-08-21T09:07:16;2.63;;;1.27;;
40601;SDS011;26310;50.278;19.032;2022-08-21T09:18:27;1.20;;;1.00;;
40601;SDS011;26310;50.278;19.032;2022-08-21T09:23:46;1.20;;;1.00;;
40601;SDS011;26310;50.278;19.032;2022-08-21T09:29:19;2.15;;;1.02;;
40601;SDS011;26310;50.278;19.032;2022-08-21T09:34:28;3.30;;;1.00;;
40601;SDS011;26310;50.278;19.032;2022-08-21T09:39:38;3.03;;;1.02;;
40601;SDS011;26310;50.278;19.032;2022-08-21T09:44:47;1.40;;;0.93;;
40601;SDS011;26310;50.278;19.032;2022-08-21T09:49:50;1.60;;;1.08;;
40601;SDS011;26310;50.278;19.032;2022-08-21T09:54:54;3.25;;;0.90;;
40601;SDS011;26310;50.278;19.032;2022-08-21T10:00:16;1.42;;;1.10;;
40601;SDS011;26310;50.278;19.032;2022-08-21T10:05:23;1.92;;;1.00;;
40601;SDS011;26310;50.278;19.032;2022-08-21T10:10:30;3.10;;;1.00;;
40601;SDS011;26310;50.278;19.032;2022-08-21T10:20:57;2.55;;;1.02;;
40601;SDS011;26310;50.278;19.032;2022-08-21T10:26:25;1.80;;;1.00;;
40601;SDS011;26310;50.278;19.032;2022-08-21T10:42:59;2.15;;;1.20;;
40601;SDS011;26310;50.278;19.032;2022-08-21T10:53:55;1.58;;;1.25;;
40601;SDS011;26310;50.278;19.032;2022-08-21T11:09:50;1.90;;;1.40;;
40601;SDS011;26310;50.278;19.032;2022-08-21T11:15:03;1.42;;;1.27;;
40601;SDS011;26310;50.278;19.032;2022-08-21T11:20:33;2.65;;;1.75;;
40601;SDS011;26310;50.278;19.032;2022-08-21T11:25:53;1.98;;;1.60;;
40601;SDS011;26310;50.278;19.032;2022-08-21T11:31:17;2.55;;;1.45;;
40601;SDS011;26310;50.278;19.032;2022-08-21T11:36:29;2.25;;;1.40;;
40601;SDS011;26310;50.278;19.032;2022-08-21T11:41:49;2.35;;;1.90;;
40601;SDS011;26310;50.278;19.032;2022-08-21T11:52:56;1.50;;;1.15;;
40601;SDS011;26310;50.278;19.032;2022-08-21T12:03:29;1.80;;;1.10;;
40601;SDS011;26310;50.278;19.032;2022-08-21T12:08:44;1.30;;;1.20;;
40601;SDS011;26310;50.278;19.032;2022-08-21T12:13:55;1.33;;;1.08;;
40601;SDS011;26310;50.278;19.032;2022-08-21T12:29:29;1.40;;;1.30;;
40601;SDS011;26310;50.278;19.032;2022-08-21T12:34:38;1.73;;;1.30;;
40601;SDS011;26310;50.278;19.032;2022-08-21T12:39:47;1.70;;;1.40;;
40601;SDS011;26310;50.278;19.032;2022-08-21T12:44:54;1.60;;;1.50;;
40601;SDS011;26310;50.278;19.032;2022-08-21T12:50:05;1.80;;;1.70;;
40601;SDS011;26310;50.278;19.032;2022-08-21T12:55:12;3.47;;;1.88;;
40601;SDS011;26310;50.278;19.032;2022-08-21T13:00:19;6.60;;;4.25;;
40601;SDS011;26310;50.278;19.032;2022-08-21T13:05:31;5.70;;;5.13;;
40601;SDS011;26310;50.278;19.032;2022-08-21T13:10:37;2.97;;;2.28;;
40601;SDS011;26310;50.278;19.032;2022-08-21T13:15:42;2.65;;;2.40;;
40601;SDS011;26310;50.278;19.032;2022-08-21T13:20:48;5.70;;;5.10;;
40601;SDS011;26310;50.278;19.032;2022-08-21T13:25:52;6.78;;;6.10;;
40601;SDS011;26310;50.278;19.032;2022-08-21T13:30:55;8.25;;;6.60;;
40601;SDS011;26310;50.278;19.032;2022-08-21T13:36:07;10.02;;;7.68;;
40601;SDS011;26310;50.278;19.032;2022-08-21T13:41:18;7.65;;;5.75;;
40601;SDS011;26310;50.278;19.032;2022-08-21T13:46:40;7.25;;;5.95;;
40601;SDS011;26310;50.278;19.032;2022-08-21T13:52:04;10.07;;;6.95;;
40601;SDS011;26310;50.278;19.032;2022-08-21T13:57:31;11.55;;;8.18;;
40601;SDS011;26310;50.278;19.032;2022-08-21T14:02:38;16.03;;;10.60;;
40601;SDS011;26310;50.278;19.032;2022-08-21T14:07:42;13.75;;;8.48;;
40601;SDS011;26310;50.278;19.032;2022-08-21T14:12:50;11.13;;;7.45;;
40601;SDS011;26310;50.278;19.032;2022-08-21T14:18:16;9.60;;;7.67;;
40601;SDS011;26310;50.278;19.032;2022-08-21T14:23:24;17.17;;;11.47;;
40601;SDS011;26310;50.278;19.032;2022-08-21T14:28:30;17.67;;;11.70;;
40601;SDS011;26310;50.278;19.032;2022-08-21T14:33:41;12.07;;;8.00;;
40601;SDS011;26310;50.278;19.032;2022-08-21T14:38:44;8.53;;;6.33;;
40601;SDS011;26310;50.278;19.032;2022-08-21T14:43:47;11.47;;;7.53;;
40601;SDS011;26310;50.278;19.032;2022-08-21T14:49:06;15.23;;;9.57;;
40601;SDS011;26310;50.278;19.032;2022-08-21T14:54:09;12.13;;;8.63;;
40601;SDS011;26310;50.278;19.032;2022-08-21T14:59:12;13.73;;;8.77;;
40601;SDS011;26310;50.278;19.032;2022-08-21T15:04:15;21.30;;;11.83;;
40601;SDS011;26310;50.278;19.032;2022-08-21T15:09:18;20.43;;;12.00;;
40601;SDS011;26310;50.278;19.032;2022-08-21T15:14:23;17.17;;;9.40;;
40601;SDS011;26310;50.278;19.032;2022-08-21T15:19:27;16.83;;;10.50;;
40601;SDS011;26310;50.278;19.032;2022-08-21T15:24:31;11.60;;;7.60;;
40601;SDS011;26310;50.278;19.032;2022-08-21T15:29:34;12.10;;;8.33;;
40601;SDS011;26310;50.278;19.032;2022-08-21T15:34:36;17.20;;;9.53;;
40601;SDS011;26310;50.278;19.032;2022-08-21T15:39:39;16.27;;;8.60;;
40601;SDS011;26310;50.278;19.032;2022-08-21T15:44:42;18.10;;;10.93;;
40601;SDS011;26310;50.278;19.032;2022-08-21T15:49:46;24.73;;;14.50;;
40601;SDS011;26310;50.278;19.032;2022-08-21T15:54:49;23.50;;;12.83;;
40601;SDS011;26310;50.278;19.032;2022-08-21T15:59:55;20.63;;;11.27;;
40601;SDS011;26310;50.278;19.032;2022-08-21T16:04:59;20.23;;;12.03;;
40601;SDS011;26310;50.278;19.032;2022-08-21T16:10:03;26.47;;;16.13;;
40601;SDS011;26310;50.278;19.032;2022-08-21T16:15:07;12.23;;;7.13;;
40601;SDS011;26310;50.278;19.032;2022-08-21T16:20:22;13.43;;;7.33;;
40601;SDS011;26310;50.278;19.032;2022-08-21T16:25:27;6.67;;;3.60;;
40601;SDS011;26310;50.278;19.032;2022-08-21T16:30:34;4.60;;;3.03;;
40601;SDS011;26310;50.278;19.032;2022-08-21T16:35:37;5.40;;;3.37;;
40601;SDS011;26310;50.278;19.032;2022-08-21T16:40:40;14.23;;;8.70;;
40601;SDS011;26310;50.278;19.032;2022-08-21T16:45:43;14.90;;;10.10;;
40601;SDS011;26310;50.278;19.032;2022-08-21T16:50:46;15.67;;;9.47;;
40601;SDS011;26310;50.278;19.032;2022-08-21T16:55:52;19.33;;;11.90;;
40601;SDS011;26310;50.278;19.032;2022-08-21T17:00:55;15.17;;;9.67;;
40601;SDS011;26310;50.278;19.032;2022-08-21T17:05:59;12.57;;;7.43;;
40601;SDS011;26310;50.278;19.032;2022-08-21T17:11:04;8.57;;;5.43;;
40601;SDS011;26310;50.278;19.032;2022-08-21T17:16:08;10.37;;;6.00;;
40601;SDS011;26310;50.278;19.032;2022-08-21T17:21:11;13.63;;;8.30;;
40601;SDS011;26310;50.278;19.032;2022-08-21T17:26:19;12.33;;;8.13;;
40601;SDS011;26310;50.278;19.032;2022-08-21T17:31:22;11.43;;;6.50;;
40601;SDS011;26310;50.278;19.032;2022-08-21T17:36:27;8.63;;;5.40;;
40601;SDS011;26310;50.278;19.032;2022-08-21T17:41:30;11.23;;;6.30;;
40601;SDS011;26310;50.278;19.032;2022-08-21T17:46:33;11.23;;;6.77;;
40601;SDS011;26310;50.278;19.032;2022-08-21T17:51:36;12.57;;;8.40;;
40601;SDS011;26310;50.278;19.032;2022-08-21T17:56:39;17.00;;;10.10;;
40601;SDS011;26310;50.278;19.032;2022-08-21T18:01:43;15.53;;;10.13;;
40601;SDS011;26310;50.278;19.032;2022-08-21T18:06:47;9.20;;;6.47;;
40601;SDS011;26310;50.278;19.032;2022-08-21T18:11:50;8.67;;;4.83;;
40601;SDS011;26310;50.278;19.032;2022-08-21T18:16:54;5.10;;;3.60;;
40601;SDS011;26310;50.278;19.032;2022-08-21T18:21:57;5.10;;;3.40;;
40601;SDS011;26310;50.278;19.032;2022-08-21T18:27:05;7.60;;;4.77;;
40601;SDS011;26310;50.278;19.032;2022-08-21T18:32:10;5.00;;;4.00;;
40601;SDS011;26310;50.278;19.032;2022-08-21T18:37:31;2.10;;;1.90;;
40601;SDS011;26310;50.278;19.032;2022-08-21T18:42:39;3.83;;;1.50;;
40601;SDS011;26310;50.278;19.032;2022-08-21T18:47:56;2.13;;;1.70;;
40601;SDS011;26310;50.278;19.032;2022-08-21T18:52:59;1.33;;;1.17;;
40601;SDS011;26310;50.278;19.032;2022-08-21T18:58:04;2.70;;;1.77;;
40601;SDS011;26310;50.278;19.032;2022-08-21T19:03:08;4.20;;;2.03;;
40601;SDS011;26310;50.278;19.032;2022-08-21T19:08:13;5.63;;;3.80;;
40601;SDS011;26310;50.278;19.032;2022-08-21T19:13:19;7.57;;;5.00;;
40601;SDS011;26310;50.278;19.032;2022-08-21T19:18:24;9.90;;;6.53;;
40601;SDS011;26310;50.278;19.032;2022-08-21T19:23:47;9.17;;;6.43;;
40601;SDS011;26310;50.278;19.032;2022-08-21T19:28:54;6.93;;;4.00;;
40601;SDS011;26310;50.278;19.032;2022-08-21T19:34:02;5.27;;;2.70;;
40601;SDS011;26310;50.278;19.032;2022-08-21T19:39:09;2.87;;;2.07;;
40601;SDS011;26310;50.278;19.032;2022-08-21T19:44:13;7.53;;;4.53;;
40601;SDS011;26310;50.278;19.032;2022-08-21T19:49:22;7.67;;;4.93;;
40601;SDS011;26310;50.278;19.032;2022-08-21T19:54:29;7.53;;;4.53;;
40601;SDS011;26310;50.278;19.032;2022-08-21T19:59:34;5.40;;;3.67;;
40601;SDS011;26310;50.278;19.032;2022-08-21T20:04:37;7.43;;;3.30;;
40601;SDS011;26310;50.278;19.032;2022-08-21T20:09:54;5.43;;;3.30;;
40601;SDS011;26310;50.278;19.032;2022-08-21T20:14:57;7.50;;;3.93;;
40601;SDS011;26310;50.278;19.032;2022-08-21T20:20:00;5.80;;;3.30;;
40601;SDS011;26310;50.278;19.032;2022-08-21T20:25:03;8.50;;;4.10;;
40601;SDS011;26310;50.278;19.032;2022-08-21T20:30:07;9.83;;;4.00;;
40601;SDS011;26310;50.278;19.032;2022-08-21T20:35:10;9.43;;;4.30;;
40601;SDS011;26310;50.278;19.032;2022-08-21T20:40:15;8.60;;;4.13;;
40601;SDS011;26310;50.278;19.032;2022-08-21T20:45:27;17.53;;;4.33;;
40601;SDS011;26310;50.278;19.032;2022-08-21T20:50:33;6.97;;;4.53;;
40601;SDS011;26310;50.278;19.032;2022-08-21T20:55:43;8.23;;;5.33;;
40601;SDS011;26310;50.278;19.032;2022-08-21T21:00:47;9.87;;;6.17;;
40601;SDS011;26310;50.278;19.032;2022-08-21T21:05:53;8.03;;;4.77;;
40601;SDS011;26310;50.278;19.032;2022-08-21T21:11:10;10.00;;;3.40;;
40601;SDS011;26310;50.278;19.032;2022-08-21T21:16:23;3.77;;;2.93;;
40601;SDS011;26310;50.278;19.032;2022-08-21T21:21:33;6.33;;;2.70;;
40601;SDS011;26310;50.278;19.032;2022-08-21T21:26:53;7.10;;;2.40;;
40601;SDS011;26310;50.278;19.032;2022-08-21T21:31:59;3.97;;;1.40;;
40601;SDS011;26310;50.278;19.032;2022-08-21T21:37:03;4.63;;;1.50;;
40601;SDS011;26310;50.278;19.032;2022-08-21T21:42:24;1.80;;;1.23;;
40601;SDS011;26310;50.278;19.032;2022-08-21T22:03:27;1.37;;;1.27;;
40601;SDS011;26310;50.278;19.032;2022-08-21T22:19:06;1.87;;;1.40;;
40601;SDS011;26310;50.278;19.032;2022-08-21T22:24:16;2.60;;;1.60;;
40601;SDS011;26310;50.278;19.032;2022-08-21T22:29:23;2.20;;;1.50;;
